createdAt,value
2023-02-11T00:00:24.069Z,3.57
2023-02-11T00:02:51.623Z,3.73
2023-02-11T00:05:19.390Z,3.77
2023-02-11T00:07:46.752Z,4.30
2023-02-11T00:10:14.206Z,3.30
2023-02-11T00:12:43.512Z,4.47
2023-02-11T00:15:11.448Z,3.17
2023-02-11T00:17:38.877Z,3.10
2023-02-11T00:20:08.281Z,4.53
2023-02-11T00:22:35.723Z,3.33
2023-02-11T00:25:03.209Z,4.37
2023-02-11T00:27:30.670Z,2.87
2023-02-11T00:30:00.539Z,4.00
2023-02-11T00:32:31.045Z,4.20
2023-02-11T00:34:58.469Z,3.83
2023-02-11T00:37:25.935Z,3.97
2023-02-11T00:39:53.404Z,3.03
2023-02-11T00:42:20.780Z,3.63
2023-02-11T00:44:48.197Z,4.23
2023-02-11T00:47:18.932Z,3.30
2023-02-11T00:49:48.733Z,3.30
2023-02-11T00:52:16.205Z,4.43
2023-02-11T00:54:44.120Z,5.53
2023-02-11T00:57:11.535Z,4.73
2023-02-11T00:59:39.113Z,5.13
2023-02-11T01:02:06.622Z,5.47
2023-02-11T01:04:35.475Z,2.93
2023-02-11T01:07:02.895Z,3.73
2023-02-11T01:09:31.062Z,2.90
2023-02-11T01:11:59.389Z,4.10
2023-02-11T01:14:26.811Z,4.33
2023-02-11T01:16:54.258Z,3.37
2023-02-11T01:19:22.082Z,3.13
2023-02-11T01:21:50.757Z,1.80
2023-02-11T01:24:22.619Z,3.23
2023-02-11T01:26:49.998Z,3.87
2023-02-11T01:29:17.540Z,3.50
2023-02-11T01:31:44.914Z,5.50
2023-02-11T01:34:12.558Z,3.97
2023-02-11T01:36:39.954Z,4.17
2023-02-11T01:39:09.472Z,4.07
2023-02-11T01:41:37.074Z,2.83
2023-02-11T01:44:24.614Z,3.63
2023-02-11T01:46:53.478Z,4.20
2023-02-11T01:49:22.796Z,3.63
2023-02-11T01:51:52.458Z,5.40
2023-02-11T01:54:40.647Z,1.77
2023-02-11T01:57:24.859Z,3.93
2023-02-11T02:00:08.543Z,4.20
2023-02-11T02:02:45.917Z,3.33
2023-02-11T02:05:18.361Z,2.60
2023-02-11T02:07:47.178Z,2.43
2023-02-11T02:10:18.652Z,2.57
2023-02-11T02:12:47.077Z,4.27
2023-02-11T02:15:25.175Z,4.47
2023-02-11T02:17:59.548Z,4.27
2023-02-11T02:20:41.889Z,4.57
2023-02-11T02:23:14.888Z,3.87
2023-02-11T02:26:05.433Z,3.30
2023-02-11T02:28:50.619Z,4.80
2023-02-11T02:31:26.916Z,5.00
2023-02-11T02:33:56.417Z,2.93
2023-02-11T02:36:25.326Z,4.07
2023-02-11T02:38:55.249Z,4.37
2023-02-11T02:41:24.505Z,3.87
2023-02-11T02:43:53.136Z,4.50
2023-02-11T02:46:21.941Z,4.40
2023-02-11T02:48:50.718Z,2.73
2023-02-11T02:51:28.883Z,4.40
2023-02-11T02:54:04.068Z,2.20
2023-02-11T02:56:36.249Z,2.77
2023-02-11T02:59:09.991Z,5.07
2023-02-11T03:01:43.519Z,3.87
2023-02-11T03:04:15.651Z,4.60
2023-02-11T03:06:49.417Z,4.37
2023-02-11T03:09:22.354Z,5.23
2023-02-11T03:11:49.853Z,4.87
2023-02-11T03:14:18.543Z,5.20
2023-02-11T03:16:46.782Z,3.87
2023-02-11T03:19:15.420Z,3.83
2023-02-11T03:21:44.466Z,4.53
2023-02-11T03:24:15.626Z,4.50
2023-02-11T03:26:45.412Z,2.87
2023-02-11T03:29:17.495Z,4.10
2023-02-11T03:31:48.109Z,2.93
2023-02-11T03:34:16.698Z,1.40
2023-02-11T03:36:47.342Z,2.80
2023-02-11T03:39:18.798Z,4.17
2023-02-11T03:41:48.539Z,6.23
2023-02-11T03:44:17.198Z,4.00
2023-02-11T03:46:48.319Z,4.87
2023-02-11T03:49:17.932Z,5.20
2023-02-11T03:51:45.589Z,4.63
2023-02-11T03:54:15.979Z,4.67
2023-02-11T03:56:48.067Z,3.90
2023-02-11T03:59:15.484Z,4.20
2023-02-11T04:01:42.846Z,3.43
2023-02-11T04:04:10.609Z,4.63
2023-02-11T04:06:38.094Z,5.27
2023-02-11T04:09:05.497Z,5.17
2023-02-11T04:11:32.924Z,4.73
2023-02-11T04:14:01.665Z,4.60
2023-02-11T04:16:30.083Z,2.90
2023-02-11T04:18:57.542Z,3.57
2023-02-11T04:21:24.918Z,5.13
2023-02-11T04:23:52.235Z,4.80
2023-02-11T04:26:19.621Z,4.03
2023-02-11T04:28:46.968Z,6.23
2023-02-11T04:31:15.698Z,5.40
2023-02-11T04:33:43.220Z,7.50
2023-02-11T04:36:10.604Z,3.83
2023-02-11T04:38:37.947Z,5.30
2023-02-11T04:41:05.390Z,4.87
2023-02-11T04:43:32.743Z,5.57
2023-02-11T04:46:00.391Z,3.37
2023-02-11T04:48:29.147Z,4.00
2023-02-11T04:50:56.519Z,3.33
2023-02-11T04:53:23.829Z,3.80
2023-02-11T04:55:51.714Z,5.00
2023-02-11T04:58:20.298Z,4.73
2023-02-11T05:00:49.929Z,5.33
2023-02-11T05:03:17.571Z,3.77
2023-02-11T05:05:46.349Z,5.33
2023-02-11T05:08:13.754Z,4.73
2023-02-11T05:10:41.278Z,6.60
2023-02-11T05:13:09.098Z,4.07
2023-02-11T05:15:36.546Z,5.37
2023-02-11T05:18:03.994Z,4.87
2023-02-11T05:20:31.338Z,2.97
2023-02-11T05:23:00.007Z,3.90
2023-02-11T05:25:27.348Z,4.60
2023-02-11T05:27:54.816Z,4.43
2023-02-11T05:30:22.271Z,4.17
2023-02-11T05:32:49.610Z,6.00
2023-02-11T05:35:17.126Z,5.67
2023-02-11T05:37:44.501Z,7.13
2023-02-11T05:40:13.498Z,2.87
2023-02-11T05:42:40.868Z,4.93
2023-02-11T05:45:08.578Z,4.50
2023-02-11T05:47:35.912Z,4.50
2023-02-11T05:50:03.293Z,5.50
2023-02-11T05:52:30.650Z,4.27
2023-02-11T05:54:58.027Z,7.13
2023-02-11T05:57:26.721Z,5.43
2023-02-11T05:59:54.230Z,5.83
2023-02-11T06:02:21.732Z,6.80
2023-02-11T06:04:49.167Z,7.37
2023-02-11T06:07:17.479Z,3.50
2023-02-11T06:09:45.025Z,6.03
2023-02-11T06:12:12.509Z,5.53
2023-02-11T06:14:41.425Z,4.83
2023-02-11T06:17:08.852Z,7.37
2023-02-11T06:19:36.438Z,7.53
2023-02-11T06:22:03.884Z,6.73
2023-02-11T06:24:54.759Z,6.77
2023-02-11T06:27:19.064Z,4.73
2023-02-11T06:29:48.146Z,6.73
2023-02-11T06:32:35.734Z,5.93
2023-02-11T06:35:02.875Z,6.33
2023-02-11T06:37:30.719Z,9.63
2023-02-11T06:39:58.197Z,5.47
2023-02-11T06:42:25.568Z,3.63
2023-02-11T06:44:54.240Z,4.97
2023-02-11T06:47:21.622Z,5.60
2023-02-11T06:49:49.130Z,5.73
2023-02-11T06:52:16.468Z,6.83
2023-02-11T06:54:43.842Z,3.83
2023-02-11T06:57:11.224Z,4.27
2023-02-11T06:59:38.668Z,6.53
2023-02-11T07:02:08.355Z,5.93
2023-02-11T07:04:37.419Z,3.23
2023-02-11T07:07:05.621Z,7.00
2023-02-11T07:09:34.320Z,4.87
2023-02-11T07:12:02.247Z,5.17
2023-02-11T07:14:30.125Z,5.27
2023-02-11T07:16:58.062Z,4.37
2023-02-11T07:19:27.168Z,6.70
2023-02-11T07:21:55.154Z,6.73
2023-02-11T07:24:23.264Z,9.33
2023-02-11T07:26:50.668Z,6.83
2023-02-11T07:29:18.063Z,5.37
2023-02-11T07:31:45.754Z,5.23
2023-02-11T07:34:13.517Z,5.97
2023-02-11T07:36:43.707Z,8.97
2023-02-11T07:39:11.158Z,8.07
2023-02-11T07:41:38.942Z,6.07
2023-02-11T07:44:06.482Z,8.23
2023-02-11T07:46:34.768Z,4.73
2023-02-11T07:49:03.860Z,7.63
2023-02-11T07:51:32.079Z,6.47
2023-02-11T07:54:01.027Z,8.37
2023-02-11T07:56:29.388Z,6.73
2023-02-11T07:59:00.967Z,5.87
2023-02-11T08:01:29.609Z,6.37
2023-02-11T08:03:57.775Z,3.13
2023-02-11T08:06:25.952Z,7.53
2023-02-11T08:08:53.309Z,5.07
2023-02-11T08:11:22.706Z,6.33
2023-02-11T08:13:51.179Z,9.13
2023-02-11T08:16:20.130Z,4.37
2023-02-11T08:18:48.132Z,10.07
2023-02-11T08:21:15.803Z,7.53
2023-02-11T08:23:44.190Z,8.27
2023-02-11T08:26:12.402Z,7.70
2023-02-11T08:28:41.935Z,7.47
2023-02-11T08:31:10.110Z,4.03
2023-02-11T08:33:37.953Z,7.77
2023-02-11T08:36:08.827Z,7.07
2023-02-11T08:38:36.462Z,9.73
2023-02-11T08:41:04.340Z,6.80
2023-02-11T08:43:32.924Z,8.40
2023-02-11T08:46:02.423Z,6.30
2023-02-11T08:48:30.040Z,7.40
2023-02-11T08:50:58.457Z,7.10
2023-02-11T08:53:26.219Z,6.63
2023-02-11T08:55:54.802Z,3.57
2023-02-11T08:58:22.795Z,8.70
2023-02-11T09:00:51.352Z,7.77
2023-02-11T09:03:20.364Z,6.43
2023-02-11T09:05:49.806Z,6.43
2023-02-11T09:08:17.640Z,8.13
2023-02-11T09:10:45.169Z,5.80
2023-02-11T09:13:12.650Z,6.83
2023-02-11T09:15:41.348Z,6.53
2023-02-11T09:18:08.911Z,5.47
2023-02-11T09:20:38.216Z,5.17
2023-02-11T09:23:06.039Z,3.67
2023-02-11T09:25:33.471Z,7.63
2023-02-11T09:28:00.898Z,7.50
2023-02-11T09:30:28.363Z,6.47
2023-02-11T09:32:55.780Z,5.03
2023-02-11T09:35:23.138Z,7.03
2023-02-11T09:37:52.033Z,5.37
2023-02-11T09:40:20.207Z,6.67
2023-02-11T09:42:49.129Z,6.87
2023-02-11T09:45:19.005Z,6.30
2023-02-11T09:47:49.030Z,6.03
2023-02-11T09:50:19.742Z,6.27
2023-02-11T09:52:48.590Z,6.33
2023-02-11T09:55:21.963Z,8.10
2023-02-11T09:57:50.154Z,6.30
2023-02-11T10:00:23.894Z,5.27
2023-02-11T10:03:04.148Z,9.23
2023-02-11T10:05:45.490Z,6.57
2023-02-11T10:08:17.169Z,6.20
2023-02-11T10:10:55.038Z,6.73
2023-02-11T10:13:29.693Z,6.00
2023-02-11T10:16:00.749Z,7.53
2023-02-11T10:18:39.076Z,5.87
2023-02-11T10:21:14.108Z,7.97
2023-02-11T10:23:48.894Z,6.93
2023-02-11T10:26:31.012Z,6.37
2023-02-11T10:29:55.177Z,7.10
2023-02-11T10:33:22.487Z,5.73
2023-02-11T10:36:12.963Z,8.73
2023-02-11T10:38:53.094Z,4.93
2023-02-11T10:41:26.602Z,6.53
2023-02-11T10:43:57.095Z,9.17
2023-02-11T10:49:38.330Z,7.13
2023-02-11T10:52:30.723Z,4.10
2023-02-11T10:55:00.140Z,4.83
2023-02-11T10:57:35.620Z,5.80
2023-02-11T11:00:07.844Z,4.97
2023-02-11T11:02:45.168Z,6.17
2023-02-11T11:05:19.324Z,5.30
2023-02-11T11:26:30.430Z,4.67
2023-02-11T14:26:09.688Z,3.77
2023-02-11T14:44:00.205Z,3.67
2023-02-11T14:47:38.514Z,4.60
2023-02-11T14:50:19.060Z,3.67
2023-02-11T14:53:25.700Z,2.80
2023-02-11T15:10:56.129Z,6.13
2023-02-11T15:17:30.625Z,2.63
2023-02-11T15:20:30.381Z,3.53
2023-02-11T15:23:40.897Z,2.50
2023-02-11T15:33:42.425Z,2.07
2023-02-11T15:41:34.195Z,4.00
2023-02-11T15:48:35.341Z,3.20
2023-02-11T15:51:08.511Z,2.47
2023-02-11T15:53:40.434Z,3.37
2023-02-11T15:56:10.705Z,2.17
2023-02-11T15:58:38.767Z,2.93
2023-02-11T16:01:08.194Z,2.67
2023-02-11T16:03:36.272Z,1.90
2023-02-11T16:06:21.062Z,2.67
2023-02-11T16:09:02.892Z,3.00
2023-02-11T16:11:33.830Z,2.60
2023-02-11T16:14:07.201Z,2.03
2023-02-11T16:28:42.023Z,2.83
2023-02-11T16:34:57.938Z,2.67
2023-02-11T16:37:26.766Z,2.10
2023-02-11T16:39:54.779Z,3.27
2023-02-11T16:42:22.140Z,3.13
2023-02-11T16:44:52.224Z,4.37
2023-02-11T16:47:23.744Z,2.63
2023-02-11T16:49:51.339Z,2.97
2023-02-11T16:52:19.115Z,3.10
2023-02-11T16:54:46.509Z,2.03
2023-02-11T16:57:15.148Z,3.27
2023-02-11T16:59:42.659Z,3.53
2023-02-11T17:02:15.221Z,2.77
2023-02-11T17:04:45.430Z,3.90
2023-02-11T17:07:13.148Z,3.30
2023-02-11T17:09:42.424Z,2.40
2023-02-11T17:12:10.332Z,2.77
2023-02-11T17:15:14.739Z,2.43
2023-02-11T17:17:42.552Z,2.20
2023-02-11T17:20:14.481Z,2.27
2023-02-11T17:22:41.903Z,1.07
2023-02-11T17:25:09.781Z,2.13
2023-02-11T17:27:37.337Z,1.90
2023-02-11T17:30:05.553Z,2.17
2023-02-11T17:32:37.881Z,2.27
2023-02-11T17:35:20.105Z,1.63
2023-02-11T17:42:20.691Z,2.70
2023-02-11T17:48:55.189Z,1.80
2023-02-11T17:52:03.849Z,1.80
2023-02-11T18:22:01.075Z,2.17
2023-02-11T18:24:36.622Z,1.47
2023-02-11T18:30:17.050Z,1.57
2023-02-11T18:52:48.069Z,1.23
2023-02-11T19:31:53.933Z,1.37
2023-02-11T20:13:10.900Z,1.60
2023-02-11T20:15:45.576Z,2.20
2023-02-11T20:31:43.314Z,1.57
2023-02-11T20:34:52.916Z,2.47
2023-02-11T21:08:41.580Z,1.70
2023-02-11T21:11:45.755Z,2.07
2023-02-11T21:14:29.112Z,1.30
2023-02-11T21:16:59.729Z,2.60
2023-02-11T21:19:30.656Z,1.67
2023-02-11T21:29:54.794Z,2.53
2023-02-11T21:32:33.948Z,2.47
2023-02-11T21:35:04.270Z,1.30
2023-02-11T22:28:35.617Z,0.40
2023-02-11T22:31:04.282Z,2.70
2023-02-11T22:33:33.795Z,2.03
2023-02-11T22:36:02.085Z,0.77
2023-02-11T22:38:31.664Z,1.10
2023-02-11T22:41:00.162Z,1.53
2023-02-11T22:43:28.619Z,2.10
2023-02-11T22:45:57.468Z,1.20
2023-02-11T22:48:25.306Z,1.47
2023-02-11T22:50:54.591Z,1.67
2023-02-11T22:53:25.417Z,2.20
2023-02-11T22:55:53.159Z,2.93
2023-02-11T22:58:21.171Z,0.90
2023-02-11T23:00:49.194Z,2.33
2023-02-11T23:03:17.110Z,2.63
2023-02-11T23:05:45.059Z,1.20
2023-02-11T23:08:14.055Z,1.53
2023-02-11T23:10:42.092Z,2.73
2023-02-11T23:13:10.980Z,1.70
2023-02-11T23:15:40.343Z,1.77
2023-02-11T23:18:08.253Z,1.60
2023-02-11T23:20:36.278Z,2.40
2023-02-11T23:23:04.236Z,1.60
2023-02-11T23:25:33.779Z,1.30
2023-02-11T23:28:01.674Z,1.47
2023-02-11T23:30:29.600Z,2.10
2023-02-11T23:32:57.008Z,1.73
2023-02-11T23:35:24.841Z,1.60
2023-02-11T23:37:52.873Z,1.20
2023-02-11T23:40:20.680Z,1.93
2023-02-11T23:42:49.449Z,1.60
2023-02-11T23:45:16.927Z,1.40
2023-02-11T23:47:45.751Z,2.03
2023-02-11T23:50:14.320Z,1.83
2023-02-11T23:52:43.077Z,1.47
2023-02-11T23:55:12.164Z,1.70
2023-02-11T23:57:43.101Z,2.10
